createdAt,value
2023-03-12T00:01:53.822Z,100082
2023-03-12T00:07:44.207Z,100083
2023-03-12T00:13:35.400Z,100076
2023-03-12T00:19:25.924Z,100074
2023-03-12T00:25:16.562Z,100073
2023-03-12T00:31:06.244Z,100072
2023-03-12T00:36:57.531Z,100074
2023-03-12T00:42:47.847Z,100077
2023-03-12T00:48:37.436Z,100066
2023-03-12T00:54:28.323Z,100062
2023-03-12T01:00:19.167Z,100053
2023-03-12T01:06:07.900Z,100045
2023-03-12T01:11:58.162Z,100045
2023-03-12T01:17:48.775Z,100037
2023-03-12T01:23:39.191Z,100049
2023-03-12T01:29:31.675Z,100043
2023-03-12T01:35:22.241Z,100039
2023-03-12T01:41:13.509Z,100035
2023-03-12T01:47:04.301Z,100034
2023-03-12T01:52:54.357Z,100024
2023-03-12T01:58:45.088Z,100009
2023-03-12T02:04:35.210Z,99990
2023-03-12T02:10:25.739Z,99996
2023-03-12T02:16:16.274Z,99995
2023-03-12T02:22:07.034Z,99989
2023-03-12T02:27:58.208Z,99973
2023-03-12T02:33:48.754Z,99969
2023-03-12T02:39:39.424Z,99953
2023-03-12T02:45:30.849Z,99957
2023-03-12T02:51:20.740Z,99946
2023-03-12T02:57:12.241Z,99947
2023-03-12T03:03:03.173Z,99946
2023-03-12T03:08:54.076Z,99945
2023-03-12T03:14:44.808Z,99930
2023-03-12T03:20:35.040Z,99932
2023-03-12T03:26:25.805Z,99943
2023-03-12T03:32:16.739Z,99949
2023-03-12T03:38:06.995Z,99953
2023-03-12T03:43:58.028Z,99941
2023-03-12T03:49:49.397Z,99947
2023-03-12T03:55:39.790Z,99940
2023-03-12T04:01:31.431Z,99935
2023-03-12T04:07:21.583Z,99923
2023-03-12T04:13:11.949Z,99918
2023-03-12T04:19:02.744Z,99909
2023-03-12T04:24:54.281Z,99913
2023-03-12T04:30:44.638Z,99906
2023-03-12T04:36:35.702Z,99908
2023-03-12T04:42:26.096Z,99903
2023-03-12T04:48:15.999Z,99903
2023-03-12T04:54:06.843Z,99900
2023-03-12T04:59:58.068Z,99902
2023-03-12T05:05:47.981Z,99891
2023-03-12T05:11:41.250Z,99887
2023-03-12T05:17:31.345Z,99876
2023-03-12T05:23:21.780Z,99874
2023-03-12T05:29:12.464Z,99867
2023-03-12T05:35:03.238Z,99864
2023-03-12T05:40:53.710Z,99856
2023-03-12T05:46:42.699Z,99849
2023-03-12T05:52:32.488Z,99846
2023-03-12T05:58:23.394Z,99836
2023-03-12T06:04:14.375Z,99829
2023-03-12T06:10:16.618Z,99834
2023-03-12T06:16:21.111Z,99827
2023-03-12T06:22:11.949Z,99807
2023-03-12T06:28:01.569Z,99807
2023-03-12T06:33:54.070Z,99811
2023-03-12T06:39:49.536Z,99796
2023-03-12T06:45:38.649Z,99803
2023-03-12T06:51:31.605Z,99810
2023-03-12T06:57:20.011Z,99817
2023-03-12T07:03:08.240Z,99840
2023-03-12T07:08:57.041Z,99839
2023-03-12T07:14:50.224Z,99831
2023-03-12T07:20:38.876Z,99828
2023-03-12T07:26:28.353Z,99840
2023-03-12T07:32:18.875Z,99843
2023-03-12T07:38:09.374Z,99841
2023-03-12T07:43:59.030Z,99842
2023-03-12T07:49:51.279Z,99843
2023-03-12T07:55:46.076Z,99839
2023-03-12T08:01:38.133Z,99830
2023-03-12T08:07:37.672Z,99834
2023-03-12T08:13:27.838Z,99832
2023-03-12T08:19:19.563Z,99822
2023-03-12T08:25:10.965Z,99824
2023-03-12T08:31:01.066Z,99824
2023-03-12T08:36:57.780Z,99826
2023-03-12T08:42:45.524Z,99820
2023-03-12T08:48:34.606Z,99821
2023-03-12T08:54:27.324Z,99816
2023-03-12T09:00:22.953Z,99822
2023-03-12T09:06:16.469Z,99805
2023-03-12T09:12:09.705Z,99804
2023-03-12T09:18:00.983Z,99811
2023-03-12T09:24:03.967Z,99810
2023-03-12T09:30:04.549Z,99814
2023-03-12T09:35:56.933Z,99815
2023-03-12T09:41:47.831Z,99808
2023-03-12T09:47:42.354Z,99812
2023-03-12T09:53:33.481Z,99816
2023-03-12T09:59:24.470Z,99809
2023-03-12T10:05:13.763Z,99806
2023-03-12T10:11:05.547Z,99806
2023-03-12T10:16:55.206Z,99809
2023-03-12T10:22:50.198Z,99811
2023-03-12T10:28:48.600Z,99804
2023-03-12T10:34:41.383Z,99805
2023-03-12T10:40:41.753Z,99817
2023-03-12T10:46:29.743Z,99811
2023-03-12T10:52:28.400Z,99817
2023-03-12T10:58:52.215Z,99818
2023-03-12T11:04:58.110Z,99808
2023-03-12T11:10:53.269Z,99805
2023-03-12T11:16:43.102Z,99813
2023-03-12T11:23:02.785Z,99813
2023-03-12T11:29:06.641Z,99805
2023-03-12T11:34:59.854Z,99811
2023-03-12T11:40:52.123Z,99794
2023-03-12T11:46:44.863Z,99789
2023-03-12T11:52:36.159Z,99806
2023-03-12T11:58:27.838Z,99797
2023-03-12T12:04:17.400Z,99799
2023-03-12T12:10:09.090Z,99790
2023-03-12T12:16:00.802Z,99788
2023-03-12T12:21:52.013Z,99785
2023-03-12T12:27:43.110Z,99789
2023-03-12T12:33:32.436Z,99776
2023-03-12T12:39:25.273Z,99766
2023-03-12T12:45:15.587Z,99778
2023-03-12T12:51:08.972Z,99783
2023-03-12T12:58:08.497Z,99766
2023-03-12T13:03:59.243Z,99753
2023-03-12T13:09:52.981Z,99760
2023-03-12T13:15:43.937Z,99762
2023-03-12T13:21:35.498Z,99757
2023-03-12T13:27:28.160Z,99754
2023-03-12T13:33:20.225Z,99760
2023-03-12T13:39:14.512Z,99766
2023-03-12T13:45:06.781Z,99766
2023-03-12T13:50:57.486Z,99753
2023-03-12T13:56:47.751Z,99753
2023-03-12T14:02:39.612Z,99749
2023-03-12T14:08:29.170Z,99752
2023-03-12T14:14:19.857Z,99743
2023-03-12T14:20:12.553Z,99736
2023-03-12T14:26:05.420Z,99745
2023-03-12T14:31:55.012Z,99745
2023-03-12T14:37:44.647Z,99740
2023-03-12T14:43:34.405Z,99717
2023-03-12T14:49:25.034Z,99726
2023-03-12T14:55:15.431Z,99724
2023-03-12T15:01:05.459Z,99732
2023-03-12T15:06:55.725Z,99716
2023-03-12T15:12:45.029Z,99728
2023-03-12T15:18:35.619Z,99739
2023-03-12T15:24:30.462Z,99757
2023-03-12T15:30:19.687Z,99756
2023-03-12T15:36:10.443Z,99768
2023-03-12T15:42:00.396Z,99769
2023-03-12T15:47:49.650Z,99757
2023-03-12T15:53:39.660Z,99758
2023-03-12T15:59:30.858Z,99763
2023-03-12T16:05:22.177Z,99768
2023-03-12T16:11:13.627Z,99779
2023-03-12T16:17:08.728Z,99785
2023-03-12T16:23:00.509Z,99778
2023-03-12T16:28:50.679Z,99779
2023-03-12T16:34:41.984Z,99780
2023-03-12T16:40:36.686Z,99787
2023-03-12T16:46:26.692Z,99801
2023-03-12T16:52:18.068Z,99813
2023-03-12T16:58:09.318Z,99801
2023-03-12T17:04:00.668Z,99808
2023-03-12T17:09:51.724Z,99805
2023-03-12T17:15:42.399Z,99797
2023-03-12T17:21:34.023Z,99796
2023-03-12T17:27:25.002Z,99810
2023-03-12T17:33:16.471Z,99810
2023-03-12T17:39:07.078Z,99817
2023-03-12T17:44:58.011Z,99814
2023-03-12T17:50:48.795Z,99816
2023-03-12T17:56:41.070Z,99810
2023-03-12T18:02:32.408Z,99824
2023-03-12T18:08:23.228Z,99842
2023-03-12T18:14:14.167Z,99848
2023-03-12T18:20:05.564Z,99860
2023-03-12T18:25:57.177Z,99851
2023-03-12T18:31:48.651Z,99864
2023-03-12T18:37:39.710Z,99858
2023-03-12T18:43:30.774Z,99866
2023-03-12T18:49:21.307Z,99868
2023-03-12T18:55:12.590Z,99875
2023-03-12T19:01:03.736Z,99875
2023-03-12T19:06:55.124Z,99864
2023-03-12T19:12:56.358Z,99864
2023-03-12T19:18:46.609Z,99873
2023-03-12T19:24:37.900Z,99862
2023-03-12T19:30:28.248Z,99853
2023-03-12T19:36:19.406Z,99854
2023-03-12T19:42:09.963Z,99847
2023-03-12T19:48:00.871Z,99841
2023-03-12T19:53:51.921Z,99840
2023-03-12T19:59:41.957Z,99832
2023-03-12T20:05:33.197Z,99821
2023-03-12T20:11:25.254Z,99808
2023-03-12T20:17:16.061Z,99810
2023-03-12T20:23:07.341Z,99806
2023-03-12T20:28:58.119Z,99794
2023-03-12T20:34:48.699Z,99781
2023-03-12T20:40:39.908Z,99777
2023-03-12T20:46:30.850Z,99769
2023-03-12T20:52:21.007Z,99764
2023-03-12T20:58:12.910Z,99755
2023-03-12T21:04:04.030Z,99747
2023-03-12T21:09:55.390Z,99732
2023-03-12T21:15:45.421Z,99710
2023-03-12T21:21:36.253Z,99710
2023-03-12T21:27:26.541Z,99701
2023-03-12T21:33:30.808Z,99701
2023-03-12T21:39:21.397Z,99684
2023-03-12T21:45:12.020Z,99693
2023-03-12T21:51:03.018Z,99683
2023-03-12T21:56:55.551Z,99675
2023-03-12T22:02:48.094Z,99665
2023-03-12T22:08:38.523Z,99649
2023-03-12T22:14:30.418Z,99647
2023-03-12T22:20:21.418Z,99647
2023-03-12T22:26:12.735Z,99639
2023-03-12T22:32:03.561Z,99633
2023-03-12T22:37:54.551Z,99624
2023-03-12T22:43:46.148Z,99617
2023-03-12T22:49:36.708Z,99622
2023-03-12T22:55:28.089Z,99616
2023-03-12T23:01:18.960Z,99608
2023-03-12T23:07:19.887Z,99600
2023-03-12T23:13:10.216Z,99585
2023-03-12T23:19:02.495Z,99580
2023-03-12T23:24:54.946Z,99583
2023-03-12T23:30:45.515Z,99559
2023-03-12T23:36:37.100Z,99541
2023-03-12T23:42:26.121Z,99536
2023-03-12T23:48:16.848Z,99514
2023-03-12T23:54:10.288Z,99507
